Latest Weather Observations for Kuitpo

IDS60801

Issued at 8:32 am CDT Saturday 28 March 2015 (issued every 30 minutes, with the page automatically refreshed every 10 minutes)

About weather observations | Map of weather stations | Latest weather observations for SA | Other Formats
Station Details ID: 023887 Name: KUITPO FOREST RESERVE Lat: -35.17 Lon: 138.68 Height: 365.0 m
Data from the previous 72 hours. | See also: Recent months at Kuitpo
Date/Time
CDT
Temp
°C
App
Temp
°C
Dew
Point
Rel
Hum
%
Delta-T
°C
Wind Press
QNH
hPa
Press
MSL
hPa
Rain
since 9 am
mm
Dir
 
Spd
km/h
Gust
km/h
Spd
kts
Gust
kts
28/08:30am 8.8 6.1 8.8 100 0.0 NE 13 20 7 11 1024.3 1023.4 0.2
28/08:00am 8.3 4.7 8.3 100 0.0 ENE 17 20 9 11 1024.2 1023.3 0.2
28/07:30am 8.3 5.1 8.3 100 0.0 ENE 15 20 8 11 1024.1 1023.2 0.2
28/07:00am 8.6 5.1 8.6 100 0.0 NE 17 20 9 11 1024.2 1023.3 0.2
28/06:30am 8.7 5.6 8.7 100 0.0 NE 15 20 8 11 1024.1 1023.2 0.0
28/06:00am 9.2 6.2 9.2 100 0.0 NE 15 20 8 11 1024.0 1023.1 0.0
28/05:30am 9.6 7.1 9.6 100 0.0 ENE 13 17 7 9 1024.2 1023.3 0.0
28/05:00am 9.6 6.7 9.6 100 0.0 ENE 15 20 8 11 1024.1 1023.2 0.0
28/04:30am 9.7 6.8 9.7 100 0.0 ENE 15 19 8 10 1024.5 1023.6 0.0
28/04:00am 9.7 7.2 9.7 100 0.0 ENE 13 17 7 9 1024.1 1023.2 0.0
28/03:30am 9.9 7.1 9.9 100 0.0 ENE 15 19 8 10 1024.0 1023.1 0.0
28/03:00am 10.0 7.6 10.0 100 0.0 ENE 13 17 7 9 1024.4 1023.5 0.0
28/02:30am 10.1 7.7 10.1 100 0.0 E 13 19 7 10 1024.6 1023.7 0.0
28/02:00am 10.1 7.7 10.1 100 0.0 E 13 17 7 9 1025.2 1024.2 0.0
28/01:30am 10.3 8.0 10.3 100 0.0 E 13 15 7 8 1025.4 1024.4 0.0
28/01:00am 10.5 8.6 10.5 100 0.0 ENE 11 15 6 8 1025.3 1024.3 0.0
28/12:30am 10.8 9.0 10.8 100 0.0 E 11 13 6 7 1025.4 1024.4 0.0
28/12:00am 10.7 8.9 10.7 100 0.0 E 11 15 6 8 1025.7 1024.7 0.0
 
Date/Time
CDT
Temp
°C
App
Temp
°C
Dew
Point
Rel
Hum
%
Delta-T
°C
Wind Press
QNH
hPa
Press
MSL
hPa
Rain
since 9 am
mm
Dir
 
Spd
km/h
Gust
km/h
Spd
kts
Gust
kts
27/11:30pm 11.1 9.6 10.6 97 0.3 ESE 9 13 5 7 1025.8 1024.8 0.0
27/11:00pm 11.3 9.6 9.9 91 0.7 ESE 9 13 5 7 1026.1 1025.2 0.0
27/10:30pm 11.4 9.6 9.3 87 1.1 E 9 13 5 7 1026.1 1025.2 0.0
27/10:00pm 11.8 10.0 9.5 86 1.2 E 9 11 5 6 1026.3 1025.4 0.0
27/09:30pm 11.5 9.5 10.2 92 0.7 ESE 11 17 6 9 1026.2 1025.3 0.0
27/09:00pm 11.0 8.9 9.8 92 0.6 ESE 11 15 6 8 1026.0 1025.1 0.0
27/08:30pm 11.5 9.4 9.6 88 1.0 ESE 11 15 6 8 1025.9 1024.9 0.0
27/08:00pm 11.9 10.2 9.8 87 1.1 SSE 9 15 5 8 1025.8 1024.8 0.0
27/07:30pm 12.5 9.9 9.3 81 1.6 SSE 13 20 7 11 1025.7 1024.7 0.0
27/07:00pm 13.3 10.9 8.6 73 2.4 SSE 11 17 6 9 1025.6 1024.6 0.0
27/06:30pm 13.8 11.4 8.8 72 2.6 S 11 15 6 8 1025.6 1024.6 0.0
27/06:00pm 13.4 11.2 9.5 77 2.0 SSE 11 22 6 12 1025.5 1024.5 0.0
27/05:30pm 13.6 12.4 11.5 87 1.1 WSW 9 13 5 7 1025.3 1024.3 0.0
27/05:00pm 13.4 11.2 10.8 84 1.4 WSW 13 20 7 11 1025.3 1024.3 0.0
27/04:30pm 14.3 12.2 9.9 75 2.3 WSW 11 17 6 9 1025.4 1024.4 0.0
27/04:00pm 14.1 11.5 9.5 74 2.4 SW 13 20 7 11 1025.5 1024.5 0.0
27/03:30pm 14.8 12.7 8.3 65 3.3 SSW 9 17 5 9 1025.5 1024.5 0.0
27/03:00pm 15.1 13.0 8.3 64 3.5 S 9 17 5 9 1025.7 1024.7 0.0
27/02:30pm 15.6 13.6 8.6 63 3.6 ESE 9 17 5 9 1025.9 1024.9 0.0
27/02:00pm 15.3 12.8 8.3 63 3.6 S 11 20 6 11 1026.3 1025.4 0.0
27/01:30pm 14.3 12.2 8.3 67 3.0 SSE 9 19 5 10 1026.8 1025.9 0.0
27/01:00pm 15.0 12.6 8.5 65 3.3 S 11 15 6 8 1027.1 1026.2 0.0
27/12:30pm 14.0 10.7 8.0 67 3.0 SSW 15 19 8 10 1027.8 1026.8 0.0
27/12:00pm 14.4 11.8 7.7 64 3.4 SSW 11 20 6 11 1027.8 1026.8 0.0
27/11:30am 13.1 9.9 8.6 74 2.3 SSW 15 24 8 13 1028.2 1027.2 0.0
27/11:00am 13.7 10.7 7.9 68 2.9 SSW 13 20 7 11 1028.4 1027.5 0.0
27/10:30am 13.1 10.0 7.1 67 2.9 SW 13 20 7 11 1028.4 1027.5 0.0
27/10:00am 12.2 8.3 6.9 70 2.6 SW 17 24 9 13 1028.4 1027.5 0.0
27/09:30am 11.8 8.8 7.5 75 2.1 SW 13 20 7 11 1028.2 1027.2 0.0
27/09:00am 11.6 9.3 7.3 75 2.1 WSW 9 15 5 8 1028.0 1027.0 0.0
27/08:30am 11.4 9.4 7.3 76 2.0 WSW 7 11 4 6 1027.9 1026.9 0.0
27/08:00am 11.1 8.7 6.8 75 2.1 SW 9 15 5 8 1027.3 1026.4 0.0
27/07:30am 11.2 8.3 6.7 74 2.2 SSW 11 17 6 9 1027.0 1026.1 0.0
27/07:00am 11.3 8.7 6.2 71 2.4 SSW 9 17 5 9 1026.7 1025.8 0.0
27/06:30am 11.3 8.4 6.4 72 2.3 SW 11 17 6 9 1026.5 1025.6 0.0
27/06:00am 11.3 7.7 6.6 73 2.3 SSW 15 24 8 13 1026.1 1025.2 0.0
27/05:30am 10.6 8.3 7.5 81 1.5 SW 9 17 5 9 1026.0 1025.1 0.0
27/05:00am 10.6 7.9 7.3 80 1.6 SW 11 20 6 11 1025.9 1024.9 0.0
27/04:30am 10.6 8.6 7.3 80 1.6 SW 7 11 4 6 1025.9 1024.9 0.0
27/04:00am 10.5 7.1 7.7 83 1.4 SW 15 24 8 13 1026.1 1025.2 0.0
27/03:30am 10.5 8.2 7.6 82 1.4 WSW 9 13 5 7 1026.1 1025.2 0.0
27/03:00am 10.4 7.7 7.5 82 1.4 WSW 11 15 6 8 1026.3 1025.4 0.0
27/02:30am 10.3 7.6 7.2 81 1.5 WSW 11 13 6 7 1026.4 1025.5 0.0
27/02:00am 10.6 7.8 7.1 79 1.7 SW 11 17 6 9 1026.5 1025.6 0.0
27/01:30am 11.1 8.1 6.0 71 2.4 SW 11 17 6 9 1026.5 1025.6 0.0
27/01:00am 10.8 6.6 7.3 79 1.7 SW 19 28 10 15 1026.7 1025.8 0.0
27/12:30am 10.8 7.7 7.1 78 1.8 SW 13 20 7 11 1026.6 1025.7 0.0
27/12:00am 10.6 7.9 7.5 81 1.5 SSW 11 19 6 10 1026.9 1026.0 0.0
 
Date/Time
CDT
Temp
°C
App
Temp
°C
Dew
Point
Rel
Hum
%
Delta-T
°C
Wind Press
QNH
hPa
Press
MSL
hPa
Rain
since 9 am
mm
Dir
 
Spd
km/h
Gust
km/h
Spd
kts
Gust
kts
26/11:30pm 10.3 6.9 7.7 84 1.3 SSW 15 22 8 12 1026.8 1025.9 0.0
26/11:00pm 10.8 6.5 6.9 77 1.9 SW 19 28 10 15 1026.9 1026.0 0.0
26/10:30pm 10.8 7.6 6.7 76 2.0 SW 13 20 7 11 1026.9 1026.0 0.0
26/10:00pm 10.7 7.5 6.8 77 1.9 SSW 13 22 7 12 1026.9 1026.0 0.0
26/09:30pm 10.5 7.4 7.2 80 1.6 WSW 13 20 7 11 1026.9 1026.0 0.0
26/09:00pm 10.6 6.7 7.3 80 1.6 SW 17 26 9 14 1026.9 1026.0 0.0
26/08:30pm 11.0 7.7 6.2 72 2.3 SW 13 22 7 12 1026.7 1025.8 0.0
26/08:00pm 11.2 7.8 5.7 69 2.6 SSW 13 17 7 9 1026.5 1025.6 0.0
26/07:30pm 11.8 7.9 5.2 64 3.1 SW 15 22 8 12 1026.3 1025.4 0.0
26/07:00pm 12.0 7.3 5.0 62 3.3 SW 19 30 10 16 1026.0 1025.1 0.0
26/06:30pm 12.4 6.6 4.6 59 3.6 SW 24 39 13 21 1025.6 1024.6 0.0
26/06:00pm 13.2 7.7 4.1 54 4.2 WSW 22 39 12 21 1025.3 1024.3 0.0
26/05:30pm 14.7 8.2 2.9 45 5.4 WSW 26 39 14 21 1024.9 1023.9 0.0
26/05:00pm 14.1 8.0 2.7 46 5.2 WSW 24 43 13 23 1024.6 1023.7 0.0
26/04:30pm 14.4 8.2 4.4 51 4.7 WSW 26 41 14 22 1024.5 1023.6 0.0
26/04:00pm 14.1 9.3 5.7 57 4.1 WSW 20 41 11 22 1024.5 1023.6 0.0
26/03:30pm 13.7 7.1 6.1 60 3.7 SW 30 48 16 26 1024.6 1023.7 0.0
26/03:25pm 13.8 7.5 5.9 59 3.8 SW 28 46 15 25 1024.5 1023.6 0.0
26/03:00pm 14.7 8.8 4.1 49 5.0 WSW 24 39 13 21 1024.4 1023.5 0.0
26/02:30pm 14.6 10.2 7.2 61 3.7 WSW 20 39 11 21 1024.6 1023.7 0.0
26/02:00pm 14.9 8.9 5.1 52 4.7 SW 26 39 14 21 1024.7 1023.8 0.0
26/01:37pm 14.3 7.7 4.3 51 4.7 WSW 28 46 15 25 1024.9 1023.9 0.0
26/01:30pm 15.3 9.5 6.3 55 4.4 WSW 26 43 14 23 1025.0 1024.0 0.0
26/01:00pm 14.7 9.6 6.0 56 4.2 WSW 22 39 12 21 1025.0 1024.0 0.0
26/12:30pm 13.8 7.4 5.2 56 4.1 WSW 28 43 15 23 1024.9 1023.9 0.0
26/12:00pm 13.2 7.4 4.6 56 4.0 SW 24 37 13 20 1024.9 1023.9 0.0
26/11:30am 13.0 7.7 7.0 67 2.9 WSW 24 41 13 22 1025.0 1024.0 0.0
26/11:00am 13.4 7.3 4.6 55 4.1 SW 26 43 14 23 1024.7 1023.8 0.0
26/10:30am 12.9 7.7 5.3 60 3.6 SW 22 35 12 19 1024.5 1023.6 0.0
26/10:00am 11.3 6.1 5.4 67 2.8 WSW 22 35 12 19 1024.3 1023.4 0.0
26/09:30am 10.9 5.5 4.6 65 2.9 SW 22 41 12 22 1024.0 1023.1 0.0
26/09:00am 10.8 6.0 4.7 66 2.8 SW 19 32 10 17 1023.6 1022.7 5.2
26/08:30am 9.7 4.9 4.7 71 2.3 SW 19 26 10 14 1023.1 1022.1 5.2
26/08:00am 9.5 4.6 4.3 70 2.3 SW 19 32 10 17 1022.7 1021.7 5.2
26/07:30am 9.0 4.3 5.0 76 1.8 SW 19 35 10 19 1022.3 1021.3 5.2
26/07:00am 8.6 4.0 5.4 80 1.5 SW 19 32 10 17 1021.8 1020.9 5.2
26/06:30am 8.5 3.5 4.7 77 1.7 SW 20 32 11 17 1021.4 1020.5 5.0
26/06:00am 9.0 4.1 5.0 76 1.8 SW 20 33 11 18 1021.2 1020.3 5.0
26/05:30am 8.6 4.4 5.5 81 1.4 SW 17 30 9 16 1020.8 1019.8 5.0
26/05:00am 8.4 3.6 5.5 82 1.3 SW 20 32 11 17 1020.6 1019.6 5.0
26/04:30am 8.6 4.2 4.6 76 1.8 SW 17 30 9 16 1020.6 1019.6 5.0
26/04:00am 8.7 3.6 3.9 72 2.1 SW 20 32 11 17 1020.4 1019.4 5.0
26/03:30am 8.6 3.4 3.8 72 2.1 SW 20 35 11 19 1020.4 1019.4 5.0
26/03:00am 8.8 3.6 3.8 71 2.2 SW 20 30 11 16 1020.5 1019.5 5.0
26/02:30am 8.9 3.7 3.5 69 2.4 SW 20 32 11 17 1020.5 1019.5 5.0
26/02:00am 8.9 3.8 4.1 72 2.1 SW 20 32 11 17 1020.4 1019.4 5.0
26/01:30am 9.1 4.0 4.1 71 2.2 SW 20 33 11 18 1020.2 1019.2 5.0
26/01:00am 9.5 4.4 4.3 70 2.3 SW 20 32 11 17 1020.1 1019.1 5.0
26/12:30am 9.4 4.3 4.2 70 2.3 WSW 20 33 11 18 1020.1 1019.1 5.0
26/12:00am 9.2 4.4 4.6 73 2.1 SW 19 32 10 17 1020.0 1019.0 5.0
 
Date/Time
CDT
Temp
°C
App
Temp
°C
Dew
Point
Rel
Hum
%
Delta-T
°C
Wind Press
QNH
hPa
Press
MSL
hPa
Rain
since 9 am
mm
Dir
 
Spd
km/h
Gust
km/h
Spd
kts
Gust
kts
25/11:30pm 9.1 4.2 3.9 70 2.3 SW 19 30 10 16 1019.9 1018.9 5.0
25/11:00pm 9.2 3.7 4.2 71 2.2 SW 22 32 12 17 1019.8 1018.8 5.0
25/10:30pm 9.4 4.6 4.8 73 2.1 SW 19 30 10 16 1019.7 1018.7 5.0
25/10:00pm 9.2 4.3 5.2 76 1.8 SW 20 30 11 16 1019.4 1018.4 5.0
25/09:30pm 9.3 4.2 5.9 79 1.6 SW 22 41 12 22 1019.2 1018.2 5.0
25/09:00pm 9.9 5.6 7.8 87 1.0 SW 20 33 11 18 1018.7 1017.7 5.0
25/08:30pm 9.8 6.6 9.8 100 0.0 WSW 17 30 9 16 1018.1 1017.1 5.0
25/08:00pm 9.4 5.7 9.4 100 0.0 SW 19 26 10 14 1017.7 1016.7 5.0
25/07:30pm 9.0 4.6 9.0 100 0.0 WSW 22 33 12 18 1017.6 1016.6 5.0
25/07:05pm 9.6 4.2 9.6 100 0.0 SW 28 59 15 32 1017.1 1016.1 4.2
25/07:00pm 9.9 4.6 9.9 100 0.0 SW 28 43 15 23 1017.1 1016.1 4.0
25/06:30pm 10.6 4.7 10.6 100 0.0 SW 32 54 17 29 1016.4 1015.3 3.0
25/06:16pm 11.1 4.8 11.1 100 0.0 SW 35 63 19 34 1015.5 1014.5 2.2
25/06:00pm 13.4 8.8 13.4 100 0.0 W 30 50 16 27 1015.4 1014.4 1.2
25/05:55pm 13.6 9.4 13.6 100 0.0 W 28 48 15 26 1015.2 1014.2 0.8
25/05:30pm 13.3 8.6 10.8 85 1.3 WNW 26 43 14 23 1015.2 1014.2 0.2
25/05:00pm 15.7 9.2 8.0 60 3.9 WNW 32 57 17 31 1014.9 1013.9 0.2
25/04:33pm 15.9 9.9 6.9 55 4.5 WNW 28 59 15 32 1014.9 1013.9 0.2
25/04:30pm 16.4 11.2 7.1 54 4.7 WNW 24 43 13 23 1014.9 1013.9 0.2
25/04:00pm 16.7 10.4 7.4 54 4.7 WNW 30 56 16 30 1015.1 1014.1 0.2
25/03:30pm 16.2 9.2 6.1 51 5.0 WNW 32 50 17 27 1015.2 1014.2 0.2
25/03:00pm 16.7 10.3 7.1 53 4.9 WNW 30 52 16 28 1015.6 1014.6 0.2
25/02:30pm 16.6 10.0 6.1 50 5.2 WNW 30 50 16 27 1016.0 1015.0 0.2
25/02:25pm 16.5 10.2 5.8 49 5.3 WNW 28 50 15 27 1015.9 1014.9 0.2
25/02:00pm 15.9 10.6 6.9 55 4.5 NW 24 44 13 24 1016.3 1015.2 0.2
25/01:30pm 14.9 9.3 7.0 59 3.9 WNW 26 41 14 22 1017.0 1016.0 0.2
25/01:10pm 14.7 8.5 6.3 57 4.1 WNW 28 48 15 26 1017.1 1016.1 0.2
25/01:00pm 15.8 10.9 7.0 56 4.4 WNW 22 43 12 23 1017.0 1016.0 0.2
25/12:30pm 15.5 9.9 7.0 57 4.3 WNW 26 44 14 24 1017.3 1016.3 0.2
25/12:00pm 15.4 11.1 7.7 60 3.9 NW 20 33 11 18 1017.5 1016.5 0.0
25/11:30am 13.7 9.2 6.3 61 3.6 NW 19 32 10 17 1018.0 1017.0 0.0
25/11:00am 15.0 10.5 6.0 55 4.4 NW 19 30 10 16 1018.1 1017.1 0.0
25/10:30am 13.6 8.8 5.7 59 3.8 NW 20 28 11 15 1018.3 1017.3 0.0
25/10:00am 12.7 8.4 5.4 61 3.5 NNW 17 28 9 15 1018.5 1017.5 0.0
25/09:30am 12.6 8.7 5.3 61 3.5 NNW 15 24 8 13 1018.7 1017.7 0.0
25/09:00am 11.3 7.7 5.2 66 2.8 N 13 19 7 10 1018.4 1017.4 0.0

Other Formats:

Comma delimited format used in spreadsheet applications
http://www.bom.gov.au/fwo/IDS60801/IDS60801.94683.axf

JavaScript Object Notation format (JSON) in row-major order
http://www.bom.gov.au/fwo/IDS60801/IDS60801.94683.json